Tropical Cyclones
[Index]
Main Index Home Page Stock Weather Photos Extreme Storms Discussion Storm News and Storm Chasing Reports Tropical Cyclones / Hurricanes / Typhoons Weather Data and Links Wild Fires / Bushfires Weather Observation Techniques Weather Picture Catalogue Tornado Pictures and Reports Stock Video Footage and DVDs for sale
Season 2005-2006 Tropical Cyclone GLENDA Track Map
Season 2005-2006 Summaries: [BoM-AU] [JTWC-AU] [JTWC-SIO] [JTWC-SPAC] [JTWC-SH]
<<- Previous TC | JTWC 2005-2006 Season | Next TC ->>

click for intensity scale information  Lat/long Grid: Show Hide

 Date Labels: Show Hide

Joint Typhoon Warning Centre Cyclone Data

Name: GLENDA

23 Mar 2006 12:00 UTC to 31 Mar 2006 00:00 UTC

    date/time    lat    long     hPa   cat  kts
2006-03-23 12   14.1   128.6    1006         15          
2006-03-23 18   14.5   128.8    1006         15          
2006-03-24 00   14.9   129.0    1006         15          
2006-03-24 06   15.3   128.9    1006         15          
2006-03-24 12   15.5   128.4    1006         15          
2006-03-24 18   15.3   127.7    1006         15          
2006-03-25 00   15.2   127.4    1004         20          
2006-03-25 06   15.1   127.2    1004         20          
2006-03-25 12   15.0   126.9    1004         20          
2006-03-25 18   14.9   126.2    1002         25          
2006-03-26 00   14.9   125.7    1000         30          
2006-03-26 06   14.9   125.3    1000         30          
2006-03-26 12   14.9   125.0     997         35          
2006-03-26 18   15.0   124.7     997         35          
2006-03-27 00   15.0   124.3     997         35          
2006-03-27 06   15.1   123.6     991    1    45          
2006-03-27 12   15.5   123.0     982    2    55          
2006-03-27 18   15.6   122.2     976    2    65          
2006-03-27 18   15.6   122.2     976    2    65          
2006-03-28 00   15.8   121.6     967    3    75          
2006-03-28 00   15.8   121.6     967    3    75          
2006-03-28 00   15.8   121.6     967    3    75          
2006-03-28 06   16.1   121.1     927    4   115          
2006-03-28 06   16.1   121.1     927    4   115          
2006-03-28 06   16.1   121.1     927    4   115          
2006-03-28 12   16.7   120.4     933    4   120          
2006-03-28 12   16.7   120.4     933    4   120          
2006-03-28 12   16.7   120.4     933    4   120          
2006-03-28 18   17.1   119.5     933    4   120          
2006-03-28 18   17.1   119.5     933    4   120          
2006-03-28 18   17.1   119.5     933    4   120          
2006-03-29 00   17.5   118.6     922    4   120          
2006-03-29 00   17.5   118.6     922    4   120          
2006-03-29 00   17.5   118.6     922    4   120          
2006-03-29 06   17.9   117.9     937    4   115          
2006-03-29 06   17.9   117.9     937    4   115          
2006-03-29 06   17.9   117.9     937    4   115          
2006-03-29 12   18.3   117.3     927    4   115          
2006-03-29 12   18.3   117.3     927    4   115          
2006-03-29 12   18.3   117.3     927    4   115          
2006-03-29 18   18.9   116.9     938    4   105          
2006-03-29 18   18.9   116.9     938    4   105          
2006-03-29 18   18.9   116.9     938    4   105          
2006-03-30 00   19.5   116.5     938    4   105          
2006-03-30 00   19.5   116.5     938    4   105          
2006-03-30 00   19.5   116.5     938    4   105          
2006-03-30 06   20.6   115.9     944    4   100          
2006-03-30 06   20.6   115.9     944    4   100          
2006-03-30 06   20.6   115.9     944    4   100          
2006-03-30 12   21.6   115.1     954    3    90          
2006-03-30 12   21.6   115.1     954    3    90          
2006-03-30 12   21.6   115.1     954    3    90          
2006-03-30 18   22.4   115.1     984    2    55          
2006-03-30 18   22.4   115.1     984    2    55          
2006-03-31 00   23.3   115.0    1000         30          
Winds are 1-min average.

Tropical cyclone tracks developed by Michael Bath using data from the Joint Typhoon Warning Centre Best Tracks and Google Maps.


[Australian Severe Weather index] [Copyright Notice] [Email Contacts] [Search This Site] [Privacy Policy]
Document: tropical_cyclone_glenda.htm Updated: 28 June 2017